Time;durP1;ratioP1;P1;durP2;ratioP2;P2;SDS_P1;SDS_P2;PMS_P1;PMS_P2;Temp;Humidity;BMP_temperature;BMP_pressure;BME280_temperature;BME280_humidity;BME280_pressure;Samples;Min_cycle;Max_cycle;Signal;HPM_P1;HPM_P2
2022/02/20 00:01:19;;;;;;;1.92;1.30;;;4.10;99.90;;;;;;7382415;19;20340;-81
2022/02/20 00:03:45;;;;;;;2.00;1.30;;;4.10;99.90;;;;;;7383647;19;20792;-81
2022/02/20 00:06:11;;;;;;;2.15;1.35;;;4.00;99.90;;;;;;7383219;19;20344;-81
2022/02/20 00:08:37;;;;;;;1.58;1.30;;;4.00;99.90;;;;;;7387066;19;20336;-81
2022/02/20 00:11:03;;;;;;;1.55;1.30;;;4.00;99.90;;;;;;7383355;19;20360;-80
2022/02/20 00:13:28;;;;;;;1.38;1.27;;;4.00;99.90;;;;;;7384711;19;20366;-81
2022/02/20 00:15:54;;;;;;;1.93;1.50;;;4.00;99.90;;;;;;7381283;19;20352;-79
2022/02/20 00:18:20;;;;;;;3.17;1.50;;;3.90;99.90;;;;;;7382136;19;20373;-81
2022/02/20 00:20:46;;;;;;;2.40;1.20;;;4.00;99.90;;;;;;7383265;19;20341;-82
2022/02/20 00:23:12;;;;;;;1.65;1.20;;;3.90;99.90;;;;;;7381131;19;20432;-81
2022/02/20 00:25:38;;;;;;;2.13;1.40;;;3.90;99.90;;;;;;7383756;19;20348;-80
2022/02/20 00:28:05;;;;;;;2.75;1.30;;;3.80;99.90;;;;;;7380073;19;20348;-81
2022/02/20 00:30:32;;;;;;;1.50;1.27;;;3.80;99.90;;;;;;7381653;19;20358;-82
2022/02/20 00:33:00;;;;;;;1.67;1.33;;;3.90;99.90;;;;;;7384285;19;20337;-81
2022/02/20 00:35:29;;;;;;;7.03;1.40;;;3.80;99.90;;;;;;7386723;19;20377;-81
2022/02/20 00:37:55;;;;;;;1.70;1.48;;;3.80;99.90;;;;;;7399928;19;20344;-82
2022/02/20 00:40:22;;;;;;;5.45;1.65;;;3.80;99.90;;;;;;7412856;19;20700;-81
2022/02/20 00:42:48;;;;;;;1.47;1.37;;;3.80;99.90;;;;;;7417560;19;20339;-82
2022/02/20 00:45:17;;;;;;;1.33;1.23;;;3.80;99.90;;;;;;7412893;19;20668;-81
2022/02/20 00:47:43;;;;;;;1.33;1.23;;;3.80;99.90;;;;;;7394578;19;20352;-80
2022/02/20 00:50:09;;;;;;;1.30;1.20;;;3.80;99.90;;;;;;7394970;19;20355;-80
2022/02/20 00:52:34;;;;;;;1.88;1.48;;;3.80;99.90;;;;;;7390391;19;20344;-81
2022/02/20 00:55:01;;;;;;;1.48;1.38;;;3.80;99.90;;;;;;7394172;19;20347;-85
2022/02/20 00:57:27;;;;;;;2.20;1.20;;;3.80;99.90;;;;;;7391040;19;20345;-81
2022/02/20 00:59:54;;;;;;;1.30;1.20;;;3.80;99.90;;;;;;7393372;19;20364;-81
2022/02/20 01:02:20;;;;;;;1.30;1.20;;;3.80;99.90;;;;;;7388763;19;20677;-81
2022/02/20 01:04:50;;;;;;;3.47;1.42;;;3.70;99.90;;;;;;7389733;19;20362;-81
2022/02/20 01:07:22;;;;;;;1.30;1.20;;;3.70;99.90;;;;;;7381924;19;20696;-81
2022/02/20 01:09:48;;;;;;;1.20;1.10;;;3.70;99.90;;;;;;7385004;19;20769;-81
2022/02/20 01:12:16;;;;;;;1.63;1.30;;;3.60;99.90;;;;;;7382741;19;20344;-81
2022/02/20 01:14:43;;;;;;;1.08;1.08;;;3.70;99.90;;;;;;7383941;19;20879;-78
2022/02/20 01:17:09;;;;;;;1.45;1.20;;;3.70;99.90;;;;;;7384597;19;20776;-80
2022/02/20 01:19:35;;;;;;;2.30;1.27;;;3.60;99.90;;;;;;7389715;19;20373;-78
2022/02/20 01:22:01;;;;;;;4.78;1.20;;;3.60;99.90;;;;;;7388405;19;20349;-81
2022/02/20 01:24:27;;;;;;;3.60;1.20;;;3.50;99.90;;;;;;7389013;19;20341;-82
2022/02/20 01:26:53;;;;;;;1.40;1.10;;;3.50;99.90;;;;;;7387400;19;21001;-83
2022/02/20 01:29:19;;;;;;;1.17;1.00;;;3.50;99.90;;;;;;7390794;19;20347;-81
2022/02/20 01:31:46;;;;;;;1.55;1.10;;;3.30;99.90;;;;;;7385717;19;20322;-82
2022/02/20 01:34:12;;;;;;;1.17;1.08;;;3.40;99.90;;;;;;7388465;19;20942;-81
2022/02/20 01:36:38;;;;;;;1.17;1.08;;;3.30;99.90;;;;;;7384694;19;20345;-81
2022/02/20 01:39:10;;;;;;;1.25;1.15;;;3.30;99.90;;;;;;7384560;19;20337;-82
2022/02/20 01:41:36;;;;;;;1.42;1.20;;;3.30;99.90;;;;;;7382682;19;20370;-81
2022/02/20 01:44:02;;;;;;;2.10;1.38;;;3.30;99.90;;;;;;7381816;19;20345;-81
2022/02/20 01:46:31;;;;;;;1.10;1.00;;;3.20;99.90;;;;;;7378595;19;20359;-79
2022/02/20 01:48:57;;;;;;;1.00;1.00;;;3.10;99.90;;;;;;7376318;19;20447;-78
2022/02/20 01:51:24;;;;;;;1.40;1.30;;;3.30;99.90;;;;;;7382541;19;20360;-79
2022/02/20 01:53:50;;;;;;;1.40;1.13;;;3.20;99.90;;;;;;7378819;19;20361;-79
2022/02/20 01:56:19;;;;;;;1.67;1.10;;;3.30;99.90;;;;;;7380588;19;20359;-80
2022/02/20 01:59:06;;;;;;;1.90;1.10;;;3.20;99.90;;;;;;7386619;19;20348;-79
2022/02/20 02:01:56;;;;;;;1.98;1.10;;;3.20;99.90;;;;;;7378089;19;20321;-79
2022/02/20 02:04:29;;;;;;;0.93;0.93;;;3.20;99.90;;;;;;7380434;19;20377;-82
2022/02/20 02:07:03;;;;;;;1.08;1.00;;;3.10;99.90;;;;;;7377633;19;20460;-79
2022/02/20 02:09:58;;;;;;;2.33;1.40;;;3.10;99.90;;;;;;7378789;19;20357;-81
2022/02/20 02:12:47;;;;;;;1.42;1.27;;;3.00;99.90;;;;;;7379501;19;20385;-82
2022/02/20 02:15:29;;;;;;;2.38;1.20;;;3.10;99.90;;;;;;7380478;19;20357;-82
2022/02/20 02:18:18;;;;;;;1.95;1.08;;;3.00;99.90;;;;;;7382506;19;20782;-81
2022/02/20 02:20:56;;;;;;;1.00;1.00;;;3.00;99.90;;;;;;7383078;19;20951;-82
2022/02/20 02:23:48;;;;;;;1.13;1.10;;;3.00;99.90;;;;;;7380321;19;20351;-81
2022/02/20 02:26:33;;;;;;;1.65;1.10;;;3.10;99.90;;;;;;7381791;19;20341;-82
2022/02/20 02:29:15;;;;;;;1.20;1.10;;;2.90;99.90;;;;;;7382322;19;20348;-82
2022/02/20 02:31:44;;;;;;;2.28;1.40;;;3.00;99.90;;;;;;7381617;19;20332;-81
2022/02/20 02:34:10;;;;;;;1.13;1.02;;;3.00;99.90;;;;;;7386024;19;20349;-82
2022/02/20 02:36:36;;;;;;;1.20;1.10;;;3.00;99.90;;;;;;7382868;19;20343;-82
2022/02/20 02:39:02;;;;;;;1.55;1.17;;;3.00;99.90;;;;;;7384808;19;20345;-81
2022/02/20 02:41:29;;;;;;;1.00;0.90;;;2.90;99.90;;;;;;7383909;19;20440;-81
2022/02/20 02:43:56;;;;;;;1.90;1.20;;;2.90;99.90;;;;;;7382626;19;20353;-82
2022/02/20 02:46:24;;;;;;;2.95;1.30;;;2.90;99.90;;;;;;7385249;19;21065;-82
2022/02/20 02:48:52;;;;;;;2.08;1.17;;;3.00;99.90;;;;;;7384426;19;20344;-82
2022/02/20 02:51:19;;;;;;;2.25;1.10;;;2.80;99.90;;;;;;7385057;19;20341;-82
2022/02/20 02:53:45;;;;;;;1.65;1.30;;;2.80;99.90;;;;;;7391274;19;20356;-80
2022/02/20 02:56:11;;;;;;;1.30;1.13;;;2.80;99.90;;;;;;7388757;19;20351;-78
2022/02/20 02:58:36;;;;;;;1.25;1.15;;;2.80;99.90;;;;;;7390945;19;20370;-82
2022/02/20 03:01:06;;;;;;;1.10;1.10;;;2.90;99.90;;;;;;7399568;19;20344;-79
2022/02/20 03:03:33;;;;;;;2.90;1.40;;;2.80;99.90;;;;;;7403285;19;20345;-82
2022/02/20 03:06:10;;;;;;;1.00;1.00;;;2.90;99.90;;;;;;7400202;19;20353;-83
2022/02/20 03:08:45;;;;;;;1.67;1.27;;;2.90;99.90;;;;;;7418267;19;20994;-85
2022/02/20 03:11:12;;;;;;;1.20;1.10;;;2.70;99.90;;;;;;7401567;19;20371;-81
2022/02/20 03:13:41;;;;;;;1.98;1.38;;;2.80;99.90;;;;;;7392477;19;20344;-82
2022/02/20 03:16:29;;;;;;;0.98;0.98;;;2.70;99.90;;;;;;7399934;19;20361;-81
2022/02/20 03:19:05;;;;;;;2.28;1.13;;;2.80;99.90;;;;;;7403464;19;20349;-84
2022/02/20 03:21:45;;;;;;;1.30;1.20;;;2.60;99.90;;;;;;7396893;19;20345;-84
2022/02/20 03:24:20;;;;;;;1.92;1.20;;;2.70;99.90;;;;;;7401609;19;20325;-80
2022/02/20 03:26:52;;;;;;;1.10;1.00;;;2.60;99.90;;;;;;7397462;19;20750;-79
2022/02/20 03:29:31;;;;;;;0.90;0.90;;;2.50;99.90;;;;;;7408370;19;20408;-81
2022/02/20 03:32:14;;;;;;;1.55;1.10;;;2.70;99.90;;;;;;7403407;19;20332;-81
2022/02/20 03:34:46;;;;;;;1.90;1.20;;;2.70;99.90;;;;;;7398721;19;20396;-82
2022/02/20 03:37:20;;;;;;;1.30;1.20;;;2.70;99.90;;;;;;7393580;19;20353;-81
2022/02/20 03:39:54;;;;;;;1.00;1.00;;;2.70;99.90;;;;;;7393562;19;20377;-87
2022/02/20 03:42:31;;;;;;;1.20;1.10;;;2.60;99.90;;;;;;7391640;19;20348;-83
2022/02/20 03:45:23;;;;;;;1.90;1.20;;;2.60;99.90;;;;;;7403521;19;20361;-79
2022/02/20 03:47:54;;;;;;;1.40;1.02;;;2.70;99.90;;;;;;7390167;19;20353;-83
2022/02/20 03:50:22;;;;;;;1.10;1.00;;;2.70;99.90;;;;;;7388504;19;20351;-84
2022/02/20 03:52:53;;;;;;;2.35;1.20;;;2.70;99.90;;;;;;7387034;19;20352;-82
2022/02/20 03:55:25;;;;;;;2.25;1.20;;;2.70;99.90;;;;;;7387772;19;20345;-84
2022/02/20 03:57:57;;;;;;;1.10;1.00;;;2.80;99.90;;;;;;7385580;19;20357;-83
2022/02/20 04:00:45;;;;;;;0.98;0.98;;;2.80;99.90;;;;;;7386285;19;20324;-83
2022/02/20 04:03:41;;;;;;;1.33;1.20;;;2.70;99.90;;;;;;7390428;19;20340;-80
2022/02/20 04:06:10;;;;;;;1.50;1.40;;;2.80;99.90;;;;;;7384778;19;20356;-81
2022/02/20 04:08:45;;;;;;;1.45;1.25;;;3.00;99.90;;;;;;7387976;19;20941;-80
2022/02/20 04:11:15;;;;;;;3.00;1.48;;;2.80;99.90;;;;;;7387735;19;20804;-82
2022/02/20 04:13:52;;;;;;;1.30;1.20;;;2.80;99.90;;;;;;7384606;19;20348;-80
2022/02/20 04:16:27;;;;;;;1.60;1.20;;;2.90;99.90;;;;;;7388059;19;20373;-80
2022/02/20 04:18:58;;;;;;;1.40;1.30;;;2.80;99.90;;;;;;7386403;19;21124;-81
2022/02/20 04:21:30;;;;;;;1.52;1.25;;;2.80;99.90;;;;;;7384183;19;20358;-82
2022/02/20 04:24:06;;;;;;;1.43;1.27;;;2.80;99.90;;;;;;7385845;19;20420;-79
2022/02/20 04:26:32;;;;;;;1.42;1.15;;;2.80;99.90;;;;;;7382318;19;20353;-79
2022/02/20 04:28:58;;;;;;;1.95;1.27;;;2.80;99.90;;;;;;7387095;19;20365;-79
2022/02/20 04:31:24;;;;;;;1.00;1.00;;;2.80;99.90;;;;;;7384853;19;20332;-82
2022/02/20 04:33:57;;;;;;;1.20;1.10;;;2.80;99.90;;;;;;7391763;19;20344;-80
2022/02/20 04:36:23;;;;;;;1.92;1.30;;;2.80;99.90;;;;;;7386136;19;20364;-79
2022/02/20 04:38:54;;;;;;;0.95;0.95;;;2.80;99.90;;;;;;7387408;19;20378;-80
2022/02/20 04:41:22;;;;;;;1.48;1.25;;;2.80;99.90;;;;;;7385383;19;20356;-79
2022/02/20 04:43:49;;;;;;;1.75;1.15;;;2.70;99.90;;;;;;7384926;19;20348;-79
2022/02/20 04:46:16;;;;;;;1.33;1.15;;;2.80;99.90;;;;;;7384090;19;20357;-79
2022/02/20 04:48:43;;;;;;;1.08;1.08;;;2.90;99.90;;;;;;7387388;19;20343;-79
2022/02/20 04:51:24;;;;;;;1.30;1.10;;;2.80;99.90;;;;;;7383865;19;21015;-78
2022/02/20 04:53:50;;;;;;;1.02;1.02;;;2.80;99.90;;;;;;7386374;19;20345;-79
2022/02/20 04:56:18;;;;;;;1.67;1.20;;;2.90;99.90;;;;;;7383795;19;20356;-79
2022/02/20 04:58:44;;;;;;;1.30;1.20;;;2.80;99.90;;;;;;7386961;19;20694;-80
2022/02/20 05:01:22;;;;;;;1.33;1.23;;;2.80;99.90;;;;;;7385527;19;20435;-80
2022/02/20 05:04:08;;;;;;;1.33;1.23;;;2.90;99.90;;;;;;7388737;19;20365;-80
2022/02/20 05:06:42;;;;;;;1.33;1.00;;;2.90;99.90;;;;;;7384507;19;20344;-79
2022/02/20 05:09:14;;;;;;;1.50;1.13;;;2.90;99.90;;;;;;7385906;19;20356;-79
2022/02/20 05:11:50;;;;;;;1.00;1.00;;;2.90;99.90;;;;;;7384298;19;20366;-79
2022/02/20 05:14:16;;;;;;;1.40;1.00;;;2.80;99.90;;;;;;7386428;19;20344;-79
2022/02/20 05:16:44;;;;;;;1.35;1.25;;;3.00;99.90;;;;;;7384562;19;20336;-79
2022/02/20 05:19:18;;;;;;;0.95;0.93;;;3.00;99.90;;;;;;7387140;19;20364;-80
2022/02/20 05:21:52;;;;;;;1.20;1.10;;;2.80;99.90;;;;;;7384285;19;20427;-79
2022/02/20 05:24:19;;;;;;;0.80;0.80;;;3.00;99.90;;;;;;7385943;19;21059;-80
2022/02/20 05:26:45;;;;;;;0.90;0.90;;;3.00;99.90;;;;;;7386866;19;20360;-78
2022/02/20 05:29:12;;;;;;;1.25;1.20;;;3.10;99.90;;;;;;7389496;19;20343;-78
2022/02/20 05:31:41;;;;;;;0.83;0.83;;;3.10;99.90;;;;;;7390088;19;20309;-82
2022/02/20 05:34:12;;;;;;;1.30;1.02;;;3.10;99.90;;;;;;7386167;19;20693;-82
2022/02/20 05:36:38;;;;;;;2.65;0.95;;;3.00;99.90;;;;;;7385662;19;20370;-81
2022/02/20 05:39:14;;;;;;;0.95;0.90;;;3.10;99.90;;;;;;7390383;19;20362;-81
2022/02/20 05:41:41;;;;;;;1.80;1.10;;;3.20;99.90;;;;;;7388517;19;20372;-82
2022/02/20 05:44:07;;;;;;;1.08;1.08;;;3.20;99.90;;;;;;7385768;19;20804;-80
2022/02/20 05:46:37;;;;;;;3.25;1.00;;;3.40;99.90;;;;;;7384373;19;20336;-81
2022/02/20 05:49:08;;;;;;;1.13;1.08;;;3.30;99.90;;;;;;7387523;19;20892;-83
2022/02/20 05:51:55;;;;;;;1.67;0.93;;;3.30;99.90;;;;;;7388546;19;20367;-79
2022/02/20 05:54:25;;;;;;;1.10;1.07;;;3.30;99.90;;;;;;7387275;19;20769;-81
2022/02/20 05:56:51;;;;;;;1.17;1.07;;;3.30;99.90;;;;;;7386058;19;20356;-81
2022/02/20 05:59:19;;;;;;;1.00;1.00;;;3.40;99.90;;;;;;7385723;19;20348;-81
2022/02/20 06:01:48;;;;;;;1.20;1.10;;;3.50;99.90;;;;;;7389207;19;20317;-82
2022/02/20 06:04:16;;;;;;;0.93;0.93;;;3.50;99.90;;;;;;7388790;19;20341;-81
2022/02/20 06:06:51;;;;;;;1.17;1.08;;;3.50;99.90;;;;;;7387932;19;20724;-82
2022/02/20 06:09:25;;;;;;;1.20;1.10;;;3.50;99.90;;;;;;7389687;19;20355;-82
2022/02/20 06:12:11;;;;;;;1.27;1.17;;;3.50;99.90;;;;;;7386181;19;20346;-82
2022/02/20 06:14:56;;;;;;;1.08;1.08;;;3.60;99.90;;;;;;7389375;19;20912;-81
2022/02/20 06:17:33;;;;;;;1.30;1.20;;;3.60;99.90;;;;;;7386971;19;20373;-81
2022/02/20 06:20:14;;;;;;;0.95;0.95;;;3.60;99.90;;;;;;7386037;19;20351;-80
2022/02/20 06:23:01;;;;;;;0.90;0.90;;;3.60;99.90;;;;;;7388220;19;20344;-80
2022/02/20 06:25:44;;;;;;;1.03;1.03;;;3.70;99.90;;;;;;7386123;19;20406;-80
2022/02/20 06:28:14;;;;;;;1.17;1.10;;;3.60;99.90;;;;;;7392175;19;20700;-80
2022/02/20 06:30:43;;;;;;;1.15;1.05;;;3.70;99.90;;;;;;7390807;19;20354;-81
2022/02/20 06:33:14;;;;;;;1.10;1.10;;;3.70;99.90;;;;;;7394843;19;20349;-81
2022/02/20 06:35:40;;;;;;;1.50;1.00;;;3.80;99.90;;;;;;7390670;19;20348;-80
2022/02/20 06:38:06;;;;;;;1.30;1.20;;;3.70;99.90;;;;;;7393892;19;20341;-80
2022/02/20 06:40:32;;;;;;;1.08;1.08;;;3.80;99.90;;;;;;7388374;19;20364;-80
2022/02/20 06:43:00;;;;;;;1.00;1.00;;;3.90;99.90;;;;;;7391231;19;20341;-80
2022/02/20 06:45:27;;;;;;;1.40;1.20;;;3.90;99.90;;;;;;7392177;19;20344;-79
2022/02/20 06:48:14;;;;;;;1.10;1.10;;;3.90;99.90;;;;;;7392528;19;20336;-79
2022/02/20 06:51:03;;;;;;;1.02;1.02;;;4.00;99.90;;;;;;7393659;19;20341;-79
2022/02/20 06:53:48;;;;;;;1.40;1.30;;;4.00;99.90;;;;;;7395965;19;20660;-79
2022/02/20 06:56:34;;;;;;;1.05;1.05;;;4.00;99.90;;;;;;7392562;19;20352;-79
2022/02/20 06:59:00;;;;;;;3.63;3.30;;;4.00;99.90;;;;;;7394739;19;20344;-80
2022/02/20 07:01:26;;;;;;;1.50;1.40;;;4.10;99.90;;;;;;7390901;19;20906;-79
2022/02/20 07:03:52;;;;;;;1.92;1.80;;;4.10;99.90;;;;;;7394321;19;20362;-80
2022/02/20 07:06:18;;;;;;;1.63;1.52;;;4.10;99.90;;;;;;7393827;19;20348;-79
2022/02/20 07:08:44;;;;;;;2.05;1.85;;;4.10;99.90;;;;;;7395105;19;20763;-80
2022/02/20 07:11:10;;;;;;;1.40;1.30;;;4.20;99.90;;;;;;7392574;19;20869;-79
2022/02/20 07:13:37;;;;;;;1.40;1.30;;;4.20;99.90;;;;;;7393356;19;20361;-79
2022/02/20 07:16:03;;;;;;;2.03;1.40;;;4.20;99.90;;;;;;7391980;19;20395;-79
2022/02/20 07:18:30;;;;;;;1.77;1.43;;;4.30;99.90;;;;;;7392315;19;20340;-79
2022/02/20 07:20:56;;;;;;;1.50;1.40;;;4.20;99.90;;;;;;7393895;19;20428;-79
2022/02/20 07:23:24;;;;;;;1.50;1.40;;;4.20;99.90;;;;;;7392746;19;20361;-80
2022/02/20 07:28:18;;;;;;;2.63;1.63;;;4.40;99.90;;;;;;7369310;19;20365;-79
2022/02/20 07:30:45;;;;;;;1.73;1.63;;;4.50;99.90;;;;;;7362670;19;20323;-79
2022/02/20 07:33:12;;;;;;;1.38;1.27;;;4.50;99.90;;;;;;7364697;19;20352;-80
2022/02/20 07:35:38;;;;;;;1.40;1.30;;;4.50;99.90;;;;;;7371810;19;21260;-79
2022/02/20 07:38:05;;;;;;;1.30;1.30;;;4.60;99.90;;;;;;7371074;19;20359;-80
2022/02/20 07:40:32;;;;;;;1.70;1.60;;;4.60;99.90;;;;;;7368103;19;20341;-80
2022/02/20 07:42:58;;;;;;;2.33;1.60;;;4.60;99.90;;;;;;7365486;19;20356;-80
2022/02/20 07:45:25;;;;;;;2.28;1.83;;;4.60;99.90;;;;;;7364809;19;20877;-79
2022/02/20 07:47:57;;;;;;;2.05;1.65;;;4.70;99.90;;;;;;7369404;19;20344;-80
2022/02/20 07:50:25;;;;;;;1.58;1.40;;;4.70;99.90;;;;;;7364886;19;20365;-79
2022/02/20 07:52:52;;;;;;;2.70;1.63;;;4.70;99.90;;;;;;7359992;19;20419;-80
2022/02/20 07:55:19;;;;;;;2.00;1.60;;;4.80;99.90;;;;;;7368307;19;20713;-80
2022/02/20 07:57:47;;;;;;;1.50;1.40;;;4.80;99.90;;;;;;7361265;19;20355;-80
2022/02/20 08:00:14;;;;;;;1.55;1.45;;;4.80;99.90;;;;;;7365017;19;20377;-80
2022/02/20 08:02:42;;;;;;;1.50;1.40;;;4.80;99.90;;;;;;7365635;19;21451;-79
2022/02/20 08:05:09;;;;;;;1.77;1.67;;;4.80;99.90;;;;;;7365438;19;20751;-80
2022/02/20 08:07:35;;;;;;;1.98;1.88;;;4.80;99.90;;;;;;7394612;19;20367;-80
2022/02/20 08:10:03;;;;;;;1.48;1.42;;;4.90;99.90;;;;;;7394675;19;20353;-80
2022/02/20 08:12:31;;;;;;;1.50;1.40;;;4.90;99.90;;;;;;7374877;19;20340;-80
2022/02/20 08:14:57;;;;;;;1.98;1.80;;;4.90;99.90;;;;;;7370554;19;20381;-79
2022/02/20 08:17:23;;;;;;;2.55;1.60;;;4.80;99.90;;;;;;7371658;19;20356;-80
2022/02/20 08:19:49;;;;;;;1.50;1.40;;;4.80;99.90;;;;;;7369851;19;20337;-80
2022/02/20 08:22:14;;;;;;;1.57;1.47;;;4.80;99.90;;;;;;7378521;19;20344;-80
2022/02/20 08:24:40;;;;;;;2.25;1.50;;;4.80;99.90;;;;;;7377353;19;20356;-81
2022/02/20 08:27:06;;;;;;;2.13;1.93;;;4.90;99.90;;;;;;7369433;19;20379;-79
2022/02/20 08:29:31;;;;;;;2.45;1.70;;;4.90;99.90;;;;;;7375079;19;20522;-79
2022/02/20 08:31:57;;;;;;;1.55;1.45;;;4.90;99.90;;;;;;7373558;19;21086;-79
2022/02/20 08:34:23;;;;;;;1.70;1.60;;;5.00;99.90;;;;;;7373791;19;20961;-79
2022/02/20 08:36:49;;;;;;;1.57;1.47;;;5.00;99.90;;;;;;7371221;19;20363;-79
2022/02/20 08:39:14;;;;;;;2.97;2.50;;;5.10;99.90;;;;;;7367245;19;20340;-79
2022/02/20 08:41:40;;;;;;;1.40;1.30;;;5.10;99.90;;;;;;7369570;19;21071;-79
2022/02/20 08:44:06;;;;;;;1.60;1.50;;;5.10;99.90;;;;;;7366795;19;20345;-80
2022/02/20 08:46:32;;;;;;;1.52;1.42;;;5.10;99.90;;;;;;7371662;19;20345;-79
2022/02/20 08:48:58;;;;;;;2.03;1.92;;;5.20;99.90;;;;;;7364817;19;20336;-79
2022/02/20 08:51:24;;;;;;;1.40;1.30;;;5.20;99.90;;;;;;7373680;19;20353;-80
2022/02/20 08:53:50;;;;;;;1.33;1.23;;;5.10;99.90;;;;;;7365515;19;20355;-80
2022/02/20 08:56:15;;;;;;;1.93;1.83;;;5.20;99.90;;;;;;7372977;19;20343;-80
2022/02/20 08:58:41;;;;;;;4.93;3.13;;;5.30;99.90;;;;;;7370567;19;20368;-80
2022/02/20 09:01:07;;;;;;;1.97;1.87;;;5.30;99.90;;;;;;7377860;19;20341;-79
2022/02/20 09:03:32;;;;;;;2.40;2.20;;;5.30;99.90;;;;;;7372076;19;20352;-81
2022/02/20 09:05:58;;;;;;;3.13;2.70;;;5.30;99.90;;;;;;7363038;19;20360;-80
2022/02/20 09:08:24;;;;;;;1.10;1.10;;;5.20;99.90;;;;;;7372816;19;20356;-80
2022/02/20 09:10:50;;;;;;;1.20;1.10;;;5.20;99.90;;;;;;7357322;19;20797;-79
2022/02/20 09:13:16;;;;;;;1.63;1.52;;;5.10;99.90;;;;;;7356744;19;20898;-79
2022/02/20 09:15:42;;;;;;;1.27;1.25;;;5.10;99.90;;;;;;7357134;19;21258;-80
2022/02/20 09:18:08;;;;;;;1.40;1.30;;;5.00;99.90;;;;;;7362457;19;20796;-79
2022/02/20 09:20:33;;;;;;;1.30;1.20;;;5.00;99.90;;;;;;7357440;19;20363;-78
2022/02/20 09:22:59;;;;;;;1.13;1.13;;;5.00;99.90;;;;;;7357545;19;20344;-79
2022/02/20 09:25:25;;;;;;;1.57;1.47;;;5.10;99.90;;;;;;7358565;19;20348;-80
2022/02/20 09:27:50;;;;;;;1.38;1.30;;;5.30;99.90;;;;;;7362161;19;20375;-79
2022/02/20 10:05:53;;;;;;;1.20;1.20;;;5.50;99.90;;;;;;7378683;19;23300;-80
2022/02/20 10:08:18;;;;;;;1.90;1.50;;;5.70;99.90;;;;;;7378916;19;20354;-79
2022/02/20 10:10:44;;;;;;;1.88;1.73;;;5.90;99.90;;;;;;7382355;19;20353;-80
2022/02/20 10:13:10;;;;;;;1.48;1.38;;;5.90;99.90;;;;;;7381277;19;20365;-80
2022/02/20 10:15:39;;;;;;;1.20;1.17;;;5.90;99.90;;;;;;7381575;19;20373;-79
2022/02/20 10:18:27;;;;;;;1.50;1.40;;;6.00;99.90;;;;;;7382188;19;20377;-79
2022/02/20 10:21:34;;;;;;;1.40;1.30;;;5.90;99.90;;;;;;7373675;19;20717;-82
2022/02/20 10:24:18;;;;;;;1.40;1.30;;;6.00;99.90;;;;;;7388284;19;20357;-80
2022/02/20 10:27:16;;;;;;;1.98;1.48;;;6.10;99.90;;;;;;7385977;19;20364;-80
2022/02/20 10:30:07;;;;;;;1.15;1.08;;;6.10;99.90;;;;;;7386034;19;20372;-80
2022/02/20 10:32:33;;;;;;;1.20;1.20;;;6.20;99.90;;;;;;7385971;19;20627;-81
2022/02/20 10:35:06;;;;;;;1.30;1.20;;;6.40;99.90;;;;;;7380953;19;20923;-80
2022/02/20 10:37:34;;;;;;;1.67;1.58;;;6.40;99.90;;;;;;7376071;19;20344;-80
2022/02/20 10:40:00;;;;;;;1.50;1.40;;;6.40;99.90;;;;;;7381951;19;20355;-80
2022/02/20 10:42:26;;;;;;;1.55;1.45;;;6.40;99.90;;;;;;7378195;19;20364;-80
2022/02/20 10:45:00;;;;;;;1.20;1.20;;;6.50;99.90;;;;;;7382223;19;20364;-79
2022/02/20 10:47:47;;;;;;;1.45;1.35;;;6.60;99.90;;;;;;7389595;19;20361;-80
2022/02/20 10:50:27;;;;;;;1.80;1.70;;;6.60;99.90;;;;;;7389695;19;20706;-80
2022/02/20 10:53:09;;;;;;;2.20;2.00;;;6.70;99.90;;;;;;7391820;19;20420;-80
2022/02/20 10:55:39;;;;;;;1.88;1.77;;;6.80;99.90;;;;;;7394443;19;20994;-80
2022/02/20 10:58:24;;;;;;;5.55;3.75;;;7.00;99.90;;;;;;7391188;19;20340;-80
2022/02/20 11:01:01;;;;;;;2.67;1.70;;;7.00;99.90;;;;;;7388755;19;20329;-80
2022/02/20 11:03:48;;;;;;;1.92;1.83;;;7.10;99.90;;;;;;7384775;19;20963;-81
2022/02/20 11:06:35;;;;;;;5.53;3.00;;;7.20;99.90;;;;;;7387843;19;20776;-80
2022/02/20 11:09:39;;;;;;;2.08;1.85;;;7.20;99.90;;;;;;7391496;19;20369;-82
2022/02/20 11:12:08;;;;;;;1.77;1.60;;;7.20;99.90;;;;;;7383728;19;20349;-80
2022/02/20 11:14:47;;;;;;;2.95;1.40;;;7.30;99.90;;;;;;7389392;19;20395;-81
2022/02/20 11:21:34;;;;;;;1.48;1.38;;;7.50;99.90;;;;;;7394523;19;20328;-78
2022/02/20 11:24:45;;;;;;;2.42;1.50;;;7.50;99.90;;;;;;7388352;19;20341;-80
2022/02/20 11:27:27;;;;;;;3.13;1.83;;;7.40;99.90;;;;;;7385937;19;20347;-80
2022/02/20 11:30:28;;;;;;;1.50;1.40;;;7.40;99.90;;;;;;7386821;19;20328;-79
2022/02/20 11:33:39;;;;;;;1.30;1.20;;;7.30;99.90;;;;;;7392123;19;20352;-81
2022/02/20 11:37:25;;;;;;;1.60;1.50;;;7.40;99.90;;;;;;7385317;19;20361;-80
2022/02/20 11:48:39;;;;;;;4.70;1.70;;;7.50;99.90;;;;;;7386610;19;20891;-80
2022/02/20 11:52:50;;;;;;;1.42;1.30;;;7.50;99.90;;;;;;7387617;19;20440;-81
2022/02/20 11:56:14;;;;;;;2.83;1.98;;;7.50;99.90;;;;;;7388378;19;20343;-81
2022/02/20 11:59:53;;;;;;;3.13;2.33;;;7.40;99.90;;;;;;7388584;19;20500;-80
2022/02/20 12:03:37;;;;;;;1.40;1.30;;;7.40;99.90;;;;;;7387237;19;20339;-79
2022/02/20 12:06:33;;;;;;;1.60;1.30;;;7.20;99.90;;;;;;7386169;19;20375;-80
2022/02/20 12:09:41;;;;;;;3.80;1.50;;;7.10;99.90;;;;;;7388843;19;20464;-79
2022/02/20 12:16:50;;;;;;;2.17;1.75;;;7.00;99.90;;;;;;7387619;19;20363;-80
2022/02/20 12:20:04;;;;;;;1.40;1.30;;;7.00;99.90;;;;;;7386499;19;20366;-80
2022/02/20 12:22:57;;;;;;;1.42;1.33;;;6.90;99.90;;;;;;7385636;19;20354;-81
2022/02/20 12:25:43;;;;;;;3.28;1.40;;;6.80;99.90;;;;;;7387915;19;20885;-79
2022/02/20 12:28:11;;;;;;;1.63;1.52;;;6.70;99.90;;;;;;7386384;19;20875;-79
2022/02/20 12:30:58;;;;;;;1.50;1.33;;;6.60;99.90;;;;;;7363792;19;20312;-79
2022/02/20 12:33:29;;;;;;;1.73;1.58;;;6.50;99.90;;;;;;7380355;19;20355;-78
2022/02/20 12:35:54;;;;;;;1.58;1.48;;;6.40;99.90;;;;;;7377731;19;20793;-79
2022/02/20 12:38:20;;;;;;;1.30;1.20;;;6.40;99.90;;;;;;7383460;19;20368;-79
2022/02/20 12:40:47;;;;;;;1.67;1.43;;;6.30;99.90;;;;;;7380277;19;20348;-78
2022/02/20 12:43:13;;;;;;;1.65;1.35;;;6.30;99.90;;;;;;7381353;19;20766;-78
2022/02/20 12:45:44;;;;;;;3.28;2.13;;;6.20;99.90;;;;;;7378628;19;20356;-77
2022/02/20 12:48:14;;;;;;;3.10;2.38;;;6.10;99.90;;;;;;7381040;19;20348;-78
2022/02/20 12:50:42;;;;;;;4.47;2.88;;;6.00;99.90;;;;;;7382107;19;20355;-79
2022/02/20 12:53:09;;;;;;;4.65;3.80;;;6.10;99.90;;;;;;7381514;19;20878;-80
2022/02/20 12:55:35;;;;;;;6.22;4.72;;;6.10;99.90;;;;;;7383132;19;20372;-79
2022/02/20 12:58:05;;;;;;;6.47;3.38;;;6.10;99.90;;;;;;7385031;19;20673;-79
2022/02/20 13:00:32;;;;;;;2.20;1.80;;;6.10;99.90;;;;;;7384342;19;20308;-78
2022/02/20 13:02:58;;;;;;;2.05;1.90;;;6.10;99.90;;;;;;7379012;19;20360;-79
2022/02/20 13:05:31;;;;;;;4.30;2.10;;;6.10;99.90;;;;;;7379406;19;20376;-79
2022/02/20 13:07:59;;;;;;;1.67;1.57;;;6.10;99.90;;;;;;7379364;19;21004;-79
2022/02/20 13:10:30;;;;;;;1.70;1.60;;;6.20;99.90;;;;;;7379319;19;20369;-79
2022/02/20 13:13:01;;;;;;;3.40;2.40;;;6.10;99.90;;;;;;7379564;19;21053;-79
2022/02/20 13:15:27;;;;;;;1.92;1.40;;;6.10;99.90;;;;;;7377769;19;20392;-79
2022/02/20 13:18:03;;;;;;;1.65;1.55;;;6.10;99.90;;;;;;7377856;19;20352;-79
2022/02/20 13:20:40;;;;;;;2.33;1.58;;;6.10;99.90;;;;;;7381417;19;20411;-79
2022/02/20 13:23:17;;;;;;;1.50;1.40;;;6.10;99.90;;;;;;7377543;19;20349;-79
2022/02/20 13:25:43;;;;;;;4.63;1.95;;;6.10;99.90;;;;;;7389038;19;20363;-79
2022/02/20 13:28:15;;;;;;;1.80;1.50;;;6.10;99.90;;;;;;7381905;19;21018;-79
2022/02/20 13:30:41;;;;;;;1.60;1.50;;;6.10;99.90;;;;;;7380265;19;20342;-80
2022/02/20 13:33:16;;;;;;;1.90;1.45;;;6.10;99.90;;;;;;7377797;19;20345;-80
2022/02/20 13:35:45;;;;;;;1.63;1.52;;;6.10;99.90;;;;;;7376798;19;20345;-79
2022/02/20 13:38:15;;;;;;;2.33;1.50;;;6.10;99.90;;;;;;7382086;19;20356;-79
2022/02/20 13:40:43;;;;;;;1.60;1.50;;;6.10;99.90;;;;;;7381196;19;20348;-79
2022/02/20 13:43:14;;;;;;;1.73;1.63;;;6.10;99.90;;;;;;7378163;19;20364;-79
2022/02/20 13:45:49;;;;;;;2.40;1.57;;;6.10;99.90;;;;;;7380412;19;20329;-80
2022/02/20 13:48:22;;;;;;;3.42;2.67;;;6.10;99.90;;;;;;7379076;19;20348;-80
2022/02/20 13:50:49;;;;;;;4.55;3.47;;;6.10;99.90;;;;;;7378794;19;20700;-80
2022/02/20 13:53:14;;;;;;;3.40;2.17;;;6.10;99.90;;;;;;7378362;19;20346;-80
2022/02/20 13:55:40;;;;;;;2.97;2.47;;;6.20;99.90;;;;;;7377443;19;20934;-80
2022/02/20 13:58:12;;;;;;;5.00;2.07;;;6.20;99.90;;;;;;7379389;19;20830;-79
2022/02/20 14:00:38;;;;;;;2.53;1.80;;;6.20;99.90;;;;;;7378752;19;20451;-80
2022/02/20 14:03:03;;;;;;;1.87;1.70;;;6.20;99.90;;;;;;7377632;19;20752;-80
2022/02/20 14:05:29;;;;;;;1.53;1.30;;;6.20;99.90;;;;;;7380750;19;20372;-79
2022/02/20 14:08:02;;;;;;;3.20;1.73;;;6.20;99.90;;;;;;7378747;19;20352;-80
2022/02/20 14:10:29;;;;;;;1.63;1.52;;;6.30;99.90;;;;;;7380263;19;20921;-79
2022/02/20 14:12:54;;;;;;;1.73;1.43;;;6.30;99.90;;;;;;7377068;19;20707;-80
2022/02/20 14:15:30;;;;;;;1.83;1.57;;;6.30;99.90;;;;;;7376204;19;20348;-80
2022/02/20 14:18:05;;;;;;;2.45;1.40;;;6.30;99.90;;;;;;7377681;19;20364;-79
2022/02/20 14:20:34;;;;;;;1.45;1.35;;;6.30;99.90;;;;;;7374510;19;20900;-78
2022/02/20 14:23:13;;;;;;;1.80;1.55;;;6.30;99.90;;;;;;7376229;19;20349;-79